sensor_id;sensor_type;location;lat;lon;timestamp;P1;durP1;ratioP1;P2;durP2;ratioP2
32216;SDS011;18709;51.140;4.088;2022-09-09T00:09:53;4.38;;;1.52;;
32216;SDS011;18709;51.140;4.088;2022-09-09T00:15:31;8.80;;;1.73;;
32216;SDS011;18709;51.140;4.088;2022-09-09T00:23:28;5.35;;;2.30;;
32216;SDS011;18709;51.140;4.088;2022-09-09T00:31:34;9.32;;;1.73;;
32216;SDS011;18709;51.140;4.088;2022-09-09T00:36:49;7.80;;;1.77;;
32216;SDS011;18709;51.140;4.088;2022-09-09T00:42:13;6.38;;;1.80;;
32216;SDS011;18709;51.140;4.088;2022-09-09T00:44:42;6.03;;;1.70;;
32216;SDS011;18709;51.140;4.088;2022-09-09T00:50:03;7.47;;;1.88;;
32216;SDS011;18709;51.140;4.088;2022-09-09T00:56:03;4.03;;;1.58;;
32216;SDS011;18709;51.140;4.088;2022-09-09T00:58:56;6.88;;;1.73;;
32216;SDS011;18709;51.140;4.088;2022-09-09T01:01:32;19.15;;;1.67;;
32216;SDS011;18709;51.140;4.088;2022-09-09T01:03:57;8.38;;;2.08;;
32216;SDS011;18709;51.140;4.088;2022-09-09T01:06:31;6.10;;;1.42;;
32216;SDS011;18709;51.140;4.088;2022-09-09T01:11:52;5.45;;;1.42;;
32216;SDS011;18709;51.140;4.088;2022-09-09T01:14:42;8.77;;;1.50;;
32216;SDS011;18709;51.140;4.088;2022-09-09T01:17:20;5.90;;;1.45;;
32216;SDS011;18709;51.140;4.088;2022-09-09T01:27:36;9.73;;;1.88;;
32216;SDS011;18709;51.140;4.088;2022-09-09T01:30:05;5.53;;;1.92;;
32216;SDS011;18709;51.140;4.088;2022-09-09T01:32:37;3.22;;;1.17;;
32216;SDS011;18709;51.140;4.088;2022-09-09T01:35:07;6.57;;;1.52;;
32216;SDS011;18709;51.140;4.088;2022-09-09T01:37:44;6.53;;;1.50;;
32216;SDS011;18709;51.140;4.088;2022-09-09T01:40:10;6.05;;;1.35;;
32216;SDS011;18709;51.140;4.088;2022-09-09T01:42:36;4.50;;;1.20;;
32216;SDS011;18709;51.140;4.088;2022-09-09T01:45:02;4.85;;;1.30;;
32216;SDS011;18709;51.140;4.088;2022-09-09T01:47:29;5.25;;;1.27;;
32216;SDS011;18709;51.140;4.088;2022-09-09T01:49:54;5.78;;;1.38;;
32216;SDS011;18709;51.140;4.088;2022-09-09T01:52:20;8.05;;;1.20;;
32216;SDS011;18709;51.140;4.088;2022-09-09T01:54:46;6.32;;;1.00;;
32216;SDS011;18709;51.140;4.088;2022-09-09T02:05:45;2.20;;;0.90;;
32216;SDS011;18709;51.140;4.088;2022-09-09T02:08:21;7.15;;;1.17;;
32216;SDS011;18709;51.140;4.088;2022-09-09T02:13:28;8.40;;;1.55;;
32216;SDS011;18709;51.140;4.088;2022-09-09T02:16:02;6.22;;;1.10;;
32216;SDS011;18709;51.140;4.088;2022-09-09T02:18:32;4.63;;;1.00;;
32216;SDS011;18709;51.140;4.088;2022-09-09T02:21:18;4.82;;;1.05;;
32216;SDS011;18709;51.140;4.088;2022-09-09T02:23:46;5.63;;;1.27;;
32216;SDS011;18709;51.140;4.088;2022-09-09T02:26:14;5.45;;;1.10;;
32216;SDS011;18709;51.140;4.088;2022-09-09T02:28:45;5.53;;;1.30;;
32216;SDS011;18709;51.140;4.088;2022-09-09T02:31:14;4.95;;;1.25;;
32216;SDS011;18709;51.140;4.088;2022-09-09T02:33:43;7.35;;;1.48;;
32216;SDS011;18709;51.140;4.088;2022-09-09T02:36:12;7.43;;;1.73;;
32216;SDS011;18709;51.140;4.088;2022-09-09T02:38:47;7.20;;;1.58;;
32216;SDS011;18709;51.140;4.088;2022-09-09T02:41:16;9.07;;;1.50;;
32216;SDS011;18709;51.140;4.088;2022-09-09T02:43:44;12.77;;;1.88;;
32216;SDS011;18709;51.140;4.088;2022-09-09T02:49:00;14.02;;;2.33;;
32216;SDS011;18709;51.140;4.088;2022-09-09T02:54:38;4.80;;;1.60;;
32216;SDS011;18709;51.140;4.088;2022-09-09T02:57:11;5.38;;;1.33;;
32216;SDS011;18709;51.140;4.088;2022-09-09T02:59:38;15.07;;;2.00;;
32216;SDS011;18709;51.140;4.088;2022-09-09T03:02:05;10.40;;;2.47;;
32216;SDS011;18709;51.140;4.088;2022-09-09T03:04:31;8.65;;;1.45;;
32216;SDS011;18709;51.140;4.088;2022-09-09T03:06:57;6.57;;;1.65;;
32216;SDS011;18709;51.140;4.088;2022-09-09T03:09:24;6.53;;;1.33;;
32216;SDS011;18709;51.140;4.088;2022-09-09T03:11:51;5.05;;;1.52;;
32216;SDS011;18709;51.140;4.088;2022-09-09T03:14:17;4.57;;;1.35;;
32216;SDS011;18709;51.140;4.088;2022-09-09T03:16:46;8.95;;;1.83;;
32216;SDS011;18709;51.140;4.088;2022-09-09T03:19:12;6.22;;;1.40;;
32216;SDS011;18709;51.140;4.088;2022-09-09T03:21:38;11.52;;;1.95;;
32216;SDS011;18709;51.140;4.088;2022-09-09T03:24:04;5.85;;;1.63;;
32216;SDS011;18709;51.140;4.088;2022-09-09T03:26:31;8.07;;;1.80;;
32216;SDS011;18709;51.140;4.088;2022-09-09T03:28:57;5.22;;;1.60;;
32216;SDS011;18709;51.140;4.088;2022-09-09T03:31:25;9.25;;;1.70;;
32216;SDS011;18709;51.140;4.088;2022-09-09T03:33:55;6.55;;;1.90;;
32216;SDS011;18709;51.140;4.088;2022-09-09T03:36:22;5.07;;;1.48;;
32216;SDS011;18709;51.140;4.088;2022-09-09T03:38:48;9.00;;;2.03;;
32216;SDS011;18709;51.140;4.088;2022-09-09T03:41:13;9.32;;;1.75;;
32216;SDS011;18709;51.140;4.088;2022-09-09T03:43:39;5.55;;;1.90;;
32216;SDS011;18709;51.140;4.088;2022-09-09T03:46:06;14.43;;;1.83;;
32216;SDS011;18709;51.140;4.088;2022-09-09T03:48:32;10.35;;;2.15;;
32216;SDS011;18709;51.140;4.088;2022-09-09T03:50:57;9.10;;;1.80;;
32216;SDS011;18709;51.140;4.088;2022-09-09T03:53:26;13.27;;;1.92;;
32216;SDS011;18709;51.140;4.088;2022-09-09T03:55:53;7.93;;;1.60;;
32216;SDS011;18709;51.140;4.088;2022-09-09T03:58:21;6.82;;;1.75;;
32216;SDS011;18709;51.140;4.088;2022-09-09T04:00:53;6.85;;;1.98;;
32216;SDS011;18709;51.140;4.088;2022-09-09T04:03:23;9.73;;;1.70;;
32216;SDS011;18709;51.140;4.088;2022-09-09T04:05:50;6.55;;;1.73;;
32216;SDS011;18709;51.140;4.088;2022-09-09T04:08:16;12.13;;;1.60;;
32216;SDS011;18709;51.140;4.088;2022-09-09T04:10:47;11.10;;;2.15;;
32216;SDS011;18709;51.140;4.088;2022-09-09T04:13:16;12.50;;;1.98;;
32216;SDS011;18709;51.140;4.088;2022-09-09T04:15:43;10.98;;;2.47;;
32216;SDS011;18709;51.140;4.088;2022-09-09T04:18:15;10.43;;;1.48;;
32216;SDS011;18709;51.140;4.088;2022-09-09T04:20:40;9.55;;;2.00;;
32216;SDS011;18709;51.140;4.088;2022-09-09T04:23:08;7.72;;;1.90;;
32216;SDS011;18709;51.140;4.088;2022-09-09T04:25:34;13.50;;;2.17;;
32216;SDS011;18709;51.140;4.088;2022-09-09T04:27:59;11.43;;;2.10;;
32216;SDS011;18709;51.140;4.088;2022-09-09T04:30:25;10.23;;;1.83;;
32216;SDS011;18709;51.140;4.088;2022-09-09T04:32:52;7.07;;;1.60;;
32216;SDS011;18709;51.140;4.088;2022-09-09T04:35:18;16.63;;;1.95;;
32216;SDS011;18709;51.140;4.088;2022-09-09T04:37:45;7.97;;;2.17;;
32216;SDS011;18709;51.140;4.088;2022-09-09T04:40:12;8.48;;;1.80;;
32216;SDS011;18709;51.140;4.088;2022-09-09T04:42:38;11.95;;;2.13;;
32216;SDS011;18709;51.140;4.088;2022-09-09T04:45:05;11.93;;;2.33;;
32216;SDS011;18709;51.140;4.088;2022-09-09T04:47:31;14.13;;;2.08;;
32216;SDS011;18709;51.140;4.088;2022-09-09T04:49:57;13.75;;;3.03;;
32216;SDS011;18709;51.140;4.088;2022-09-09T04:52:23;10.90;;;2.30;;
32216;SDS011;18709;51.140;4.088;2022-09-09T04:54:49;13.50;;;2.03;;
32216;SDS011;18709;51.140;4.088;2022-09-09T04:57:14;11.07;;;1.75;;
32216;SDS011;18709;51.140;4.088;2022-09-09T04:59:40;14.18;;;2.20;;
32216;SDS011;18709;51.140;4.088;2022-09-09T05:02:06;12.07;;;1.92;;
32216;SDS011;18709;51.140;4.088;2022-09-09T05:04:32;10.80;;;2.03;;
32216;SDS011;18709;51.140;4.088;2022-09-09T05:06:58;18.75;;;2.33;;
32216;SDS011;18709;51.140;4.088;2022-09-09T05:09:24;13.18;;;1.73;;
32216;SDS011;18709;51.140;4.088;2022-09-09T05:11:50;8.75;;;2.13;;
32216;SDS011;18709;51.140;4.088;2022-09-09T05:14:16;10.63;;;2.05;;
32216;SDS011;18709;51.140;4.088;2022-09-09T05:16:43;14.35;;;2.40;;
32216;SDS011;18709;51.140;4.088;2022-09-09T05:19:09;13.25;;;2.47;;
32216;SDS011;18709;51.140;4.088;2022-09-09T05:21:35;10.88;;;2.13;;
32216;SDS011;18709;51.140;4.088;2022-09-09T05:24:02;10.55;;;2.30;;
32216;SDS011;18709;51.140;4.088;2022-09-09T05:26:27;10.07;;;2.05;;
32216;SDS011;18709;51.140;4.088;2022-09-09T05:28:54;9.73;;;1.95;;
32216;SDS011;18709;51.140;4.088;2022-09-09T05:31:20;13.18;;;2.20;;
32216;SDS011;18709;51.140;4.088;2022-09-09T05:33:46;12.07;;;1.92;;
32216;SDS011;18709;51.140;4.088;2022-09-09T05:36:18;11.95;;;2.40;;
32216;SDS011;18709;51.140;4.088;2022-09-09T05:38:45;14.50;;;2.58;;
32216;SDS011;18709;51.140;4.088;2022-09-09T05:41:12;10.57;;;2.08;;
32216;SDS011;18709;51.140;4.088;2022-09-09T05:43:40;11.85;;;2.05;;
32216;SDS011;18709;51.140;4.088;2022-09-09T05:46:15;13.00;;;1.90;;
32216;SDS011;18709;51.140;4.088;2022-09-09T05:48:43;11.15;;;2.17;;
32216;SDS011;18709;51.140;4.088;2022-09-09T05:51:14;12.50;;;2.20;;
32216;SDS011;18709;51.140;4.088;2022-09-09T05:53:41;16.63;;;2.45;;
32216;SDS011;18709;51.140;4.088;2022-09-09T05:56:09;10.05;;;1.98;;
32216;SDS011;18709;51.140;4.088;2022-09-09T05:58:37;10.77;;;2.22;;
32216;SDS011;18709;51.140;4.088;2022-09-09T06:01:13;13.57;;;2.67;;
32216;SDS011;18709;51.140;4.088;2022-09-09T06:03:41;11.75;;;2.17;;
32216;SDS011;18709;51.140;4.088;2022-09-09T06:06:09;9.98;;;2.13;;
32216;SDS011;18709;51.140;4.088;2022-09-09T06:11:12;13.23;;;2.03;;
32216;SDS011;18709;51.140;4.088;2022-09-09T06:13:40;16.50;;;2.92;;
32216;SDS011;18709;51.140;4.088;2022-09-09T06:16:13;13.77;;;2.05;;
32216;SDS011;18709;51.140;4.088;2022-09-09T06:18:40;12.77;;;2.70;;
32216;SDS011;18709;51.140;4.088;2022-09-09T06:21:08;11.73;;;2.15;;
32216;SDS011;18709;51.140;4.088;2022-09-09T06:26:15;11.88;;;2.00;;
32216;SDS011;18709;51.140;4.088;2022-09-09T06:28:46;17.65;;;2.30;;
32216;SDS011;18709;51.140;4.088;2022-09-09T06:31:13;11.85;;;2.25;;
32216;SDS011;18709;51.140;4.088;2022-09-09T06:33:42;17.73;;;2.17;;
32216;SDS011;18709;51.140;4.088;2022-09-09T06:36:12;11.25;;;2.22;;
32216;SDS011;18709;51.140;4.088;2022-09-09T06:38:40;12.00;;;2.30;;
32216;SDS011;18709;51.140;4.088;2022-09-09T06:41:07;11.40;;;2.25;;
32216;SDS011;18709;51.140;4.088;2022-09-09T06:43:34;14.52;;;2.10;;
32216;SDS011;18709;51.140;4.088;2022-09-09T06:46:01;7.15;;;1.58;;
32216;SDS011;18709;51.140;4.088;2022-09-09T06:48:28;15.20;;;2.45;;
32216;SDS011;18709;51.140;4.088;2022-09-09T06:51:01;10.40;;;1.85;;
32216;SDS011;18709;51.140;4.088;2022-09-09T06:53:38;18.77;;;2.65;;
32216;SDS011;18709;51.140;4.088;2022-09-09T06:56:26;16.83;;;2.30;;
32216;SDS011;18709;51.140;4.088;2022-09-09T06:58:53;19.33;;;2.47;;
32216;SDS011;18709;51.140;4.088;2022-09-09T07:01:20;13.82;;;2.05;;
32216;SDS011;18709;51.140;4.088;2022-09-09T07:03:49;12.57;;;1.88;;
32216;SDS011;18709;51.140;4.088;2022-09-09T07:06:16;10.52;;;2.20;;
32216;SDS011;18709;51.140;4.088;2022-09-09T07:08:48;7.40;;;1.98;;
32216;SDS011;18709;51.140;4.088;2022-09-09T07:11:15;8.68;;;1.77;;
32216;SDS011;18709;51.140;4.088;2022-09-09T07:13:41;13.13;;;2.25;;
32216;SDS011;18709;51.140;4.088;2022-09-09T07:16:08;12.57;;;2.58;;
32216;SDS011;18709;51.140;4.088;2022-09-09T07:18:39;8.52;;;2.15;;
32216;SDS011;18709;51.140;4.088;2022-09-09T07:21:05;14.55;;;2.25;;
32216;SDS011;18709;51.140;4.088;2022-09-09T07:23:31;17.17;;;2.15;;
32216;SDS011;18709;51.140;4.088;2022-09-09T07:25:57;14.20;;;2.53;;
32216;SDS011;18709;51.140;4.088;2022-09-09T07:28:24;11.73;;;1.83;;
32216;SDS011;18709;51.140;4.088;2022-09-09T07:30:56;10.05;;;1.88;;
32216;SDS011;18709;51.140;4.088;2022-09-09T07:33:24;13.18;;;2.72;;
32216;SDS011;18709;51.140;4.088;2022-09-09T07:35:51;13.20;;;2.45;;
32216;SDS011;18709;51.140;4.088;2022-09-09T07:38:17;22.67;;;2.85;;
32216;SDS011;18709;51.140;4.088;2022-09-09T07:40:44;14.75;;;1.92;;
32216;SDS011;18709;51.140;4.088;2022-09-09T07:43:10;9.85;;;2.08;;
32216;SDS011;18709;51.140;4.088;2022-09-09T07:45:36;11.30;;;2.15;;
32216;SDS011;18709;51.140;4.088;2022-09-09T07:48:02;13.15;;;2.22;;
32216;SDS011;18709;51.140;4.088;2022-09-09T07:50:29;13.23;;;2.30;;
32216;SDS011;18709;51.140;4.088;2022-09-09T07:52:55;9.63;;;1.75;;
32216;SDS011;18709;51.140;4.088;2022-09-09T07:55:21;7.82;;;1.75;;
32216;SDS011;18709;51.140;4.088;2022-09-09T07:57:50;11.70;;;2.00;;
32216;SDS011;18709;51.140;4.088;2022-09-09T08:00:16;8.98;;;1.73;;
32216;SDS011;18709;51.140;4.088;2022-09-09T08:02:43;9.32;;;1.70;;
32216;SDS011;18709;51.140;4.088;2022-09-09T08:05:09;6.13;;;1.35;;
32216;SDS011;18709;51.140;4.088;2022-09-09T08:07:35;12.77;;;2.60;;
32216;SDS011;18709;51.140;4.088;2022-09-09T08:10:01;10.50;;;1.83;;
32216;SDS011;18709;51.140;4.088;2022-09-09T08:12:28;7.78;;;1.60;;
32216;SDS011;18709;51.140;4.088;2022-09-09T08:14:54;11.60;;;2.38;;
32216;SDS011;18709;51.140;4.088;2022-09-09T08:17:19;6.68;;;1.48;;
32216;SDS011;18709;51.140;4.088;2022-09-09T08:19:45;9.93;;;1.77;;
32216;SDS011;18709;51.140;4.088;2022-09-09T08:22:11;15.18;;;2.13;;
32216;SDS011;18709;51.140;4.088;2022-09-09T08:24:36;9.60;;;1.73;;
32216;SDS011;18709;51.140;4.088;2022-09-09T08:27:02;14.70;;;2.08;;
32216;SDS011;18709;51.140;4.088;2022-09-09T08:29:28;9.23;;;1.70;;
32216;SDS011;18709;51.140;4.088;2022-09-09T08:31:55;8.73;;;1.48;;
32216;SDS011;18709;51.140;4.088;2022-09-09T08:34:22;8.90;;;1.73;;
32216;SDS011;18709;51.140;4.088;2022-09-09T08:36:51;6.63;;;1.58;;
32216;SDS011;18709;51.140;4.088;2022-09-09T08:39:19;9.82;;;1.83;;
32216;SDS011;18709;51.140;4.088;2022-09-09T08:58:31;10.38;;;1.55;;
32216;SDS011;18709;51.140;4.088;2022-09-09T09:11:53;7.80;;;1.77;;
32216;SDS011;18709;51.140;4.088;2022-09-09T09:14:29;11.70;;;2.25;;
32216;SDS011;18709;51.140;4.088;2022-09-09T09:19:42;12.63;;;1.65;;
32216;SDS011;18709;51.140;4.088;2022-09-09T09:22:19;10.50;;;1.90;;
32216;SDS011;18709;51.140;4.088;2022-09-09T09:30:18;8.13;;;1.70;;
32216;SDS011;18709;51.140;4.088;2022-09-09T09:32:51;9.63;;;1.80;;
32216;SDS011;18709;51.140;4.088;2022-09-09T09:35:24;7.40;;;2.38;;
32216;SDS011;18709;51.140;4.088;2022-09-09T09:37:50;8.98;;;1.75;;
32216;SDS011;18709;51.140;4.088;2022-09-09T09:40:17;9.20;;;1.80;;
32216;SDS011;18709;51.140;4.088;2022-09-09T09:42:52;6.15;;;1.70;;
32216;SDS011;18709;51.140;4.088;2022-09-09T09:47:57;6.82;;;1.38;;
32216;SDS011;18709;51.140;4.088;2022-09-09T09:50:24;7.45;;;1.70;;
32216;SDS011;18709;51.140;4.088;2022-09-09T09:52:53;6.75;;;1.38;;
32216;SDS011;18709;51.140;4.088;2022-09-09T09:55:28;8.77;;;1.70;;
32216;SDS011;18709;51.140;4.088;2022-09-09T09:58:05;8.45;;;1.48;;
32216;SDS011;18709;51.140;4.088;2022-09-09T10:00:31;8.32;;;1.75;;
32216;SDS011;18709;51.140;4.088;2022-09-09T10:03:00;5.55;;;1.48;;
32216;SDS011;18709;51.140;4.088;2022-09-09T10:05:27;4.47;;;1.60;;
32216;SDS011;18709;51.140;4.088;2022-09-09T10:18:58;5.60;;;1.60;;
32216;SDS011;18709;51.140;4.088;2022-09-09T10:32:47;7.35;;;2.05;;
32216;SDS011;18709;51.140;4.088;2022-09-09T10:49:19;10.10;;;1.30;;
32216;SDS011;18709;51.140;4.088;2022-09-09T11:02:49;7.88;;;1.23;;
32216;SDS011;18709;51.140;4.088;2022-09-09T11:10:41;5.00;;;1.20;;
32216;SDS011;18709;51.140;4.088;2022-09-09T11:13:22;4.43;;;1.23;;
32216;SDS011;18709;51.140;4.088;2022-09-09T11:15:53;8.60;;;1.20;;
32216;SDS011;18709;51.140;4.088;2022-09-09T11:18:25;4.35;;;1.20;;
32216;SDS011;18709;51.140;4.088;2022-09-09T11:20:56;4.60;;;0.90;;
32216;SDS011;18709;51.140;4.088;2022-09-09T11:23:39;5.00;;;1.33;;
32216;SDS011;18709;51.140;4.088;2022-09-09T11:26:12;4.95;;;1.17;;
32216;SDS011;18709;51.140;4.088;2022-09-09T11:29:08;4.13;;;1.00;;
32216;SDS011;18709;51.140;4.088;2022-09-09T11:32:10;7.90;;;1.38;;
32216;SDS011;18709;51.140;4.088;2022-09-09T11:37:44;4.70;;;0.93;;
32216;SDS011;18709;51.140;4.088;2022-09-09T11:40:21;3.25;;;1.02;;
32216;SDS011;18709;51.140;4.088;2022-09-09T11:43:05;3.70;;;0.90;;
32216;SDS011;18709;51.140;4.088;2022-09-09T11:45:38;3.92;;;1.25;;
32216;SDS011;18709;51.140;4.088;2022-09-09T11:48:22;4.35;;;1.00;;
32216;SDS011;18709;51.140;4.088;2022-09-09T11:50:58;3.63;;;0.85;;
32216;SDS011;18709;51.140;4.088;2022-09-09T11:53:25;5.00;;;0.93;;
32216;SDS011;18709;51.140;4.088;2022-09-09T11:58:39;4.38;;;0.80;;
32216;SDS011;18709;51.140;4.088;2022-09-09T12:01:30;4.15;;;1.00;;
32216;SDS011;18709;51.140;4.088;2022-09-09T12:06:48;4.47;;;1.10;;
32216;SDS011;18709;51.140;4.088;2022-09-09T12:09:32;5.05;;;0.82;;
32216;SDS011;18709;51.140;4.088;2022-09-09T12:28:10;6.95;;;1.40;;
32216;SDS011;18709;51.140;4.088;2022-09-09T12:30:56;13.05;;;1.42;;
32216;SDS011;18709;51.140;4.088;2022-09-09T12:36:12;15.75;;;1.92;;
32216;SDS011;18709;51.140;4.088;2022-09-09T12:38:44;19.30;;;2.10;;
32216;SDS011;18709;51.140;4.088;2022-09-09T12:41:27;4.65;;;1.50;;
32216;SDS011;18709;51.140;4.088;2022-09-09T12:44:04;5.43;;;0.98;;
32216;SDS011;18709;51.140;4.088;2022-09-09T12:49:01;3.25;;;0.95;;
32216;SDS011;18709;51.140;4.088;2022-09-09T12:51:29;6.32;;;0.80;;
32216;SDS011;18709;51.140;4.088;2022-09-09T12:53:58;2.35;;;0.80;;
32216;SDS011;18709;51.140;4.088;2022-09-09T12:56:25;3.92;;;1.20;;
32216;SDS011;18709;51.140;4.088;2022-09-09T12:58:56;5.22;;;1.27;;
32216;SDS011;18709;51.140;4.088;2022-09-09T13:01:24;3.75;;;1.20;;
32216;SDS011;18709;51.140;4.088;2022-09-09T13:03:53;2.75;;;0.90;;
32216;SDS011;18709;51.140;4.088;2022-09-09T13:06:24;2.65;;;0.77;;
32216;SDS011;18709;51.140;4.088;2022-09-09T13:08:58;4.40;;;1.00;;
32216;SDS011;18709;51.140;4.088;2022-09-09T13:11:27;6.18;;;1.10;;
32216;SDS011;18709;51.140;4.088;2022-09-09T13:14:12;6.20;;;1.10;;
32216;SDS011;18709;51.140;4.088;2022-09-09T13:16:53;3.47;;;1.10;;
32216;SDS011;18709;51.140;4.088;2022-09-09T13:19:20;3.85;;;0.75;;
32216;SDS011;18709;51.140;4.088;2022-09-09T13:21:46;5.40;;;1.00;;
32216;SDS011;18709;51.140;4.088;2022-09-09T13:24:27;4.53;;;0.90;;
32216;SDS011;18709;51.140;4.088;2022-09-09T13:26:58;3.40;;;0.85;;
32216;SDS011;18709;51.140;4.088;2022-09-09T13:29:28;3.75;;;1.13;;
32216;SDS011;18709;51.140;4.088;2022-09-09T13:32:06;3.25;;;0.95;;
32216;SDS011;18709;51.140;4.088;2022-09-09T13:34:53;5.15;;;0.90;;
32216;SDS011;18709;51.140;4.088;2022-09-09T13:40:03;4.07;;;1.13;;
32216;SDS011;18709;51.140;4.088;2022-09-09T13:42:35;2.95;;;0.88;;
32216;SDS011;18709;51.140;4.088;2022-09-09T13:45:17;6.88;;;1.25;;
32216;SDS011;18709;51.140;4.088;2022-09-09T13:47:48;5.68;;;1.10;;
32216;SDS011;18709;51.140;4.088;2022-09-09T13:50:25;5.78;;;1.20;;
32216;SDS011;18709;51.140;4.088;2022-09-09T13:52:53;5.88;;;1.25;;
32216;SDS011;18709;51.140;4.088;2022-09-09T13:55:21;6.15;;;1.42;;
32216;SDS011;18709;51.140;4.088;2022-09-09T13:57:55;6.25;;;1.02;;
32216;SDS011;18709;51.140;4.088;2022-09-09T14:00:22;3.63;;;0.93;;
32216;SDS011;18709;51.140;4.088;2022-09-09T14:02:49;5.07;;;1.25;;
32216;SDS011;18709;51.140;4.088;2022-09-09T14:05:16;5.45;;;1.17;;
32216;SDS011;18709;51.140;4.088;2022-09-09T14:07:42;4.75;;;1.27;;
32216;SDS011;18709;51.140;4.088;2022-09-09T14:10:09;3.95;;;1.00;;
32216;SDS011;18709;51.140;4.088;2022-09-09T14:12:35;5.95;;;1.40;;
32216;SDS011;18709;51.140;4.088;2022-09-09T14:15:02;3.08;;;0.80;;
32216;SDS011;18709;51.140;4.088;2022-09-09T14:17:31;4.43;;;1.25;;
32216;SDS011;18709;51.140;4.088;2022-09-09T14:19:58;2.85;;;1.00;;
32216;SDS011;18709;51.140;4.088;2022-09-09T14:22:24;2.25;;;0.70;;
32216;SDS011;18709;51.140;4.088;2022-09-09T14:24:50;3.60;;;0.85;;
32216;SDS011;18709;51.140;4.088;2022-09-09T14:27:16;4.05;;;0.98;;
32216;SDS011;18709;51.140;4.088;2022-09-09T14:29:42;2.72;;;0.93;;
32216;SDS011;18709;51.140;4.088;2022-09-09T14:32:09;5.45;;;1.00;;
32216;SDS011;18709;51.140;4.088;2022-09-09T14:34:35;3.80;;;0.90;;
32216;SDS011;18709;51.140;4.088;2022-09-09T14:37:01;3.35;;;0.95;;
32216;SDS011;18709;51.140;4.088;2022-09-09T14:39:27;2.83;;;0.90;;
32216;SDS011;18709;51.140;4.088;2022-09-09T14:41:53;3.40;;;0.90;;
32216;SDS011;18709;51.140;4.088;2022-09-09T14:44:18;4.07;;;0.88;;
32216;SDS011;18709;51.140;4.088;2022-09-09T14:46:44;2.30;;;0.88;;
32216;SDS011;18709;51.140;4.088;2022-09-09T14:49:10;4.25;;;1.02;;
32216;SDS011;18709;51.140;4.088;2022-09-09T14:51:37;2.55;;;0.90;;
32216;SDS011;18709;51.140;4.088;2022-09-09T14:54:04;2.35;;;0.70;;
32216;SDS011;18709;51.140;4.088;2022-09-09T14:56:31;3.38;;;1.15;;
32216;SDS011;18709;51.140;4.088;2022-09-09T14:59:00;6.15;;;1.23;;
32216;SDS011;18709;51.140;4.088;2022-09-09T15:01:26;1.42;;;0.73;;
32216;SDS011;18709;51.140;4.088;2022-09-09T15:03:55;1.98;;;0.93;;
32216;SDS011;18709;51.140;4.088;2022-09-09T15:06:26;4.10;;;1.10;;
32216;SDS011;18709;51.140;4.088;2022-09-09T15:08:54;4.57;;;0.98;;
32216;SDS011;18709;51.140;4.088;2022-09-09T15:11:22;2.90;;;0.70;;
32216;SDS011;18709;51.140;4.088;2022-09-09T15:13:51;5.22;;;1.00;;
32216;SDS011;18709;51.140;4.088;2022-09-09T15:16:20;3.00;;;0.70;;
32216;SDS011;18709;51.140;4.088;2022-09-09T15:18:50;1.77;;;0.82;;
32216;SDS011;18709;51.140;4.088;2022-09-09T15:21:19;4.72;;;1.25;;
32216;SDS011;18709;51.140;4.088;2022-09-09T15:23:46;3.22;;;0.90;;
32216;SDS011;18709;51.140;4.088;2022-09-09T15:26:16;2.15;;;0.73;;
32216;SDS011;18709;51.140;4.088;2022-09-09T15:28:43;2.38;;;0.80;;
32216;SDS011;18709;51.140;4.088;2022-09-09T15:33:36;2.22;;;0.70;;
32216;SDS011;18709;51.140;4.088;2022-09-09T15:36:24;4.68;;;0.90;;
32216;SDS011;18709;51.140;4.088;2022-09-09T15:38:52;3.08;;;0.95;;
32216;SDS011;18709;51.140;4.088;2022-09-09T15:41:18;4.05;;;1.10;;
32216;SDS011;18709;51.140;4.088;2022-09-09T15:43:47;5.07;;;1.27;;
32216;SDS011;18709;51.140;4.088;2022-09-09T15:51:34;5.43;;;1.70;;
32216;SDS011;18709;51.140;4.088;2022-09-09T15:54:01;4.93;;;1.52;;
32216;SDS011;18709;51.140;4.088;2022-09-09T15:56:27;5.65;;;1.40;;
32216;SDS011;18709;51.140;4.088;2022-09-09T15:58:55;5.57;;;1.50;;
32216;SDS011;18709;51.140;4.088;2022-09-09T16:01:22;6.07;;;1.77;;
32216;SDS011;18709;51.140;4.088;2022-09-09T16:03:49;5.95;;;1.95;;
32216;SDS011;18709;51.140;4.088;2022-09-09T16:06:17;6.25;;;1.67;;
32216;SDS011;18709;51.140;4.088;2022-09-09T16:08:44;5.93;;;1.40;;
32216;SDS011;18709;51.140;4.088;2022-09-09T16:11:12;5.10;;;1.60;;
32216;SDS011;18709;51.140;4.088;2022-09-09T16:13:41;5.97;;;1.55;;
32216;SDS011;18709;51.140;4.088;2022-09-09T16:16:08;10.18;;;1.73;;
32216;SDS011;18709;51.140;4.088;2022-09-09T16:18:39;6.45;;;2.05;;
32216;SDS011;18709;51.140;4.088;2022-09-09T16:21:06;6.93;;;2.42;;
32216;SDS011;18709;51.140;4.088;2022-09-09T16:23:33;5.97;;;2.25;;
32216;SDS011;18709;51.140;4.088;2022-09-09T16:26:00;8.63;;;2.35;;
32216;SDS011;18709;51.140;4.088;2022-09-09T16:28:26;6.70;;;2.53;;
32216;SDS011;18709;51.140;4.088;2022-09-09T16:30:52;6.78;;;2.65;;
32216;SDS011;18709;51.140;4.088;2022-09-09T16:33:19;6.70;;;1.77;;
32216;SDS011;18709;51.140;4.088;2022-09-09T16:35:44;6.65;;;1.60;;
32216;SDS011;18709;51.140;4.088;2022-09-09T16:38:10;8.77;;;1.70;;
32216;SDS011;18709;51.140;4.088;2022-09-09T16:40:37;7.72;;;1.80;;
32216;SDS011;18709;51.140;4.088;2022-09-09T16:43:03;8.93;;;1.77;;
32216;SDS011;18709;51.140;4.088;2022-09-09T16:45:30;5.72;;;1.63;;
32216;SDS011;18709;51.140;4.088;2022-09-09T16:47:57;2.92;;;1.58;;
32216;SDS011;18709;51.140;4.088;2022-09-09T16:50:24;7.13;;;1.70;;
32216;SDS011;18709;51.140;4.088;2022-09-09T16:52:51;5.88;;;1.73;;
32216;SDS011;18709;51.140;4.088;2022-09-09T16:55:17;3.45;;;1.70;;
32216;SDS011;18709;51.140;4.088;2022-09-09T16:57:45;6.35;;;1.92;;
32216;SDS011;18709;51.140;4.088;2022-09-09T17:00:15;7.13;;;1.52;;
32216;SDS011;18709;51.140;4.088;2022-09-09T17:02:43;4.90;;;2.00;;
32216;SDS011;18709;51.140;4.088;2022-09-09T17:05:10;2.95;;;1.77;;
32216;SDS011;18709;51.140;4.088;2022-09-09T17:07:37;7.40;;;2.10;;
32216;SDS011;18709;51.140;4.088;2022-09-09T17:10:03;5.03;;;2.00;;
32216;SDS011;18709;51.140;4.088;2022-09-09T17:12:30;5.32;;;1.90;;
32216;SDS011;18709;51.140;4.088;2022-09-09T17:14:57;4.43;;;2.00;;
32216;SDS011;18709;51.140;4.088;2022-09-09T17:17:24;5.47;;;1.90;;
32216;SDS011;18709;51.140;4.088;2022-09-09T17:19:51;7.53;;;2.10;;
32216;SDS011;18709;51.140;4.088;2022-09-09T17:22:17;3.15;;;2.00;;
32216;SDS011;18709;51.140;4.088;2022-09-09T17:24:45;4.50;;;2.05;;
32216;SDS011;18709;51.140;4.088;2022-09-09T17:27:11;4.72;;;2.45;;
32216;SDS011;18709;51.140;4.088;2022-09-09T17:29:37;7.32;;;2.70;;
32216;SDS011;18709;51.140;4.088;2022-09-09T17:32:03;8.77;;;2.75;;
32216;SDS011;18709;51.140;4.088;2022-09-09T17:34:30;8.05;;;2.65;;
32216;SDS011;18709;51.140;4.088;2022-09-09T17:36:56;4.40;;;2.55;;
32216;SDS011;18709;51.140;4.088;2022-09-09T17:39:22;9.88;;;3.67;;
32216;SDS011;18709;51.140;4.088;2022-09-09T17:41:47;7.00;;;3.13;;
32216;SDS011;18709;51.140;4.088;2022-09-09T17:44:13;6.05;;;2.92;;
32216;SDS011;18709;51.140;4.088;2022-09-09T17:46:41;8.88;;;2.80;;
32216;SDS011;18709;51.140;4.088;2022-09-09T17:49:16;8.88;;;2.80;;
32216;SDS011;18709;51.140;4.088;2022-09-09T17:51:43;10.90;;;3.85;;
32216;SDS011;18709;51.140;4.088;2022-09-09T17:54:12;6.10;;;3.22;;
32216;SDS011;18709;51.140;4.088;2022-09-09T17:56:39;7.97;;;2.20;;
32216;SDS011;18709;51.140;4.088;2022-09-09T17:59:06;7.72;;;2.42;;
32216;SDS011;18709;51.140;4.088;2022-09-09T18:01:35;5.50;;;1.85;;
32216;SDS011;18709;51.140;4.088;2022-09-09T18:04:04;5.72;;;1.55;;
32216;SDS011;18709;51.140;4.088;2022-09-09T18:06:41;13.95;;;2.67;;
32216;SDS011;18709;51.140;4.088;2022-09-09T18:09:10;13.80;;;2.33;;
32216;SDS011;18709;51.140;4.088;2022-09-09T18:11:39;14.15;;;2.40;;
32216;SDS011;18709;51.140;4.088;2022-09-09T18:14:08;12.83;;;2.90;;